Flight Track Log - Related Links

Times and Time Zones

All times are in EDT time to prevent confusion due to time zone crossing. See the SKP11 flight status page for this flight to view local times or setup timezone preferences in your user account.


Time Position Orientation Groundspeed Altitude Reporting Facility
EDT Latitude Longitude Course Direction KTS MPH feet Rate Location/Type
Tue 03:17:55 AM -27.5135 151.9591 51° Northeast 130 150 4,900  Level Aus ATC (RADAR)
Tue 03:18:50 AM -27.4920 151.9886 51° Northeast 137 158 6,100 1,333 Climbing Aus ATC (RADAR)
Tue 03:19:25 AM -27.4800 152.0103 58° Northeast 141 162 6,900 1,371 Climbing Aus ATC (RADAR)
Tue 03:20:35 AM -27.4536 152.0557 57° Northeast 151 174 8,500 1,091 Climbing Aus ATC (RADAR)
Tue 03:21:15 AM -27.4381 152.0827 57° Northeast 156 180 8,900 185 Climbing Aus ATC (RADAR)
Tue 03:22:45 AM -27.3958 152.1500 55° Northeast 174 200 8,900  Level Aus ATC (RADAR)
Tue 03:23:50 AM -27.3647 152.1995 55° Northeast 179 206 8,900  Level Aus ATC (RADAR)
Tue 03:24:20 AM -27.3509 152.2224 56° Northeast 178 205 8,900  Level Aus ATC (RADAR)
Tue 03:25:20 AM -27.3223 152.2689 55° Northeast 182 209 8,900  Level Aus ATC (RADAR)
Tue 03:25:45 AM -27.3103 152.2882 55° Northeast 181 208 8,900  Level Aus ATC (RADAR)
Tue 03:26:15 AM -27.2959 152.3114 55° Northeast 181 208 8,900  Level Aus ATC (RADAR)
Tue 03:27:50 AM -27.2510 152.3838 55° Northeast 176 203 8,900  Level Aus ATC (RADAR)
Tue 03:28:49 AM -27.2339 152.4329 69° East 182 209 8,900  Level Aus ATC (RADAR)
Tue 03:29:19 AM -27.2597 152.4385 169° South 188 216 8,900  Level Aus ATC (RADAR)
Tue 03:30:24 AM -27.2746 152.3719 256° West 211 243 8,900  Level Aus ATC (RADAR)
Tue 03:30:54 AM -27.2673 152.3407 285° West 204 235 8,900  Level Aus ATC (RADAR)
Tue 03:31:54 AM -27.2507 152.2794 287° West 202 232 8,900  Level Aus ATC (RADAR)
Tue 03:32:14 AM -27.2458 152.2588 285° West 201 231 8,900  Level Aus ATC (RADAR)
Tue 03:33:59 AM -27.1972 152.1913 309° West 180 207 8,900  Level Aus ATC (RADAR)
Tue 03:34:29 AM -27.1959 152.2210 87° East 190 219 8,900 200 Level Aus ATC (RADAR)
Tue 03:34:59 AM -27.2072 152.2468 116° Southeast 183 211 9,100 60 Climbing Aus ATC (RADAR)
Tue 03:36:09 AM -27.2215 152.3105 104° East 181 208 9,000 -57 Descending Aus ATC (RADAR)
Tue 03:36:44 AM -27.2262 152.3436 99° East 182 209 9,000 -48 Level Aus ATC (RADAR)
Tue 03:38:13 AM -27.2450 152.4264 104° East 182 209 8,900 -55 Descending Aus ATC (RADAR)
Tue 03:38:33 AM -27.2634 152.4306 169° South 185 213 8,900  Level Aus ATC (RADAR)
Tue 03:39:28 AM -27.2840 152.3800 245° Southwest 217 250 8,900 63 Level Aus ATC (RADAR)
Tue 03:40:08 AM -27.2704 152.3401 291° West 200 230 9,000 60 Climbing Aus ATC (RADAR)
Tue 03:41:08 AM -27.2518 152.2800 289° West 200 230 9,000  Level Aus ATC (RADAR)
Tue 03:41:43 AM -27.2308 152.2571 316° Northwest 191 220 9,000 63 Level Aus ATC (RADAR)
Tue 03:42:43 AM -27.2138 152.3031 67° East 191 220 9,100 39 Climbing Aus ATC (RADAR)
Tue 03:44:18 AM -27.2348 152.3901 105° East 181 208 9,100 -40 Level Aus ATC (RADAR)
Tue 03:45:13 AM -27.2565 152.4306 121° Southeast 176 203 9,000 -71 Descending Aus ATC (RADAR)
Tue 03:45:43 AM -27.2816 152.4139 211° Southwest 201 231 9,000  Level Aus ATC (RADAR)
Tue 03:46:18 AM -27.2822 152.3762 269° West 209 241 9,000 86 Level Aus ATC (RADAR)
Tue 03:46:53 AM -27.2718 152.3419 289° West 198 228 9,100  Climbing Aus ATC (RADAR)
Tue 03:47:33 AM -27.2582 152.3027 291° West 199 229 9,000  Descending Aus ATC (RADAR)
Tue 03:48:18 AM -27.2414 152.2603 294° West 195 224 9,100  Climbing Aus ATC (RADAR)
Tue 03:49:12 AM -27.2147 152.2962 50° Northeast 193 222 9,000 -58 Descending Aus ATC (RADAR)
Tue 03:50:02 AM -27.2265 152.3411 106° East 178 205 9,000  Level Aus ATC (RADAR)
Tue 03:50:37 AM -27.2328 152.3729 103° East 175 201 9,000 92 Level Aus ATC (RADAR)
Tue 03:51:07 AM -27.2364 152.4003 98° East 174 200 9,100 -80 Climbing Aus ATC (RADAR)
Tue 03:51:52 AM -27.2587 152.4296 131° Southeast 181 208 8,900 -75 Descending Aus ATC (RADAR)
Tue 03:52:27 AM -27.2817 152.4015 227° Southwest 209 241 9,000 92 Climbing Aus ATC (RADAR)
Tue 03:52:57 AM -27.2768 152.3694 280° West 207 238 9,000  Level Aus ATC (RADAR)
Tue 03:54:57 AM -27.2470 152.2488 286° West 197 227 9,000  Level Aus ATC (RADAR)
Tue 03:55:52 AM -27.2351 152.1936 284° West 194 223 9,000  Level Aus ATC (RADAR)
Tue 03:56:17 AM -27.2317 152.1677 279° West 198 228 9,000 -60 Level Aus ATC (RADAR)
Tue 03:57:32 AM -27.1959 152.1805 18° North 183 211 8,900 63 Descending Aus ATC (RADAR)
Tue 03:57:52 AM -27.2017 152.1999 109° East 191 220 9,100 133 Climbing Aus ATC (RADAR)
Tue 03:59:02 AM -27.2143 152.2749 101° East 212 244 9,100 -40 Level Aus ATC (RADAR)
Tue 04:00:21 AM -27.2308 152.3639 102° East 215 247 9,000 -42 Descending Aus ATC (RADAR)
Tue 04:01:26 AM -27.2428 152.4352 101° East 210 242 9,000  Level Aus ATC (RADAR)
Tue 04:01:51 AM -27.2479 152.4625 102° East 210 242 9,000 -282 Level Aus ATC (RADAR)
Tue 04:02:51 AM -27.2808 152.5191 123° Southeast 214 246 8,600 -480 Descending Aus ATC (RADAR)
Tue 04:03:31 AM -27.3041 152.5572 125° Southeast 217 250 8,200 -600 Descending Aus ATC (RADAR)
Tue 04:05:31 AM -27.3715 152.6810 122° Southeast 230 265 7,000 -633 Descending Aus ATC (RADAR)
Tue 04:06:31 AM -27.4083 152.7422 124° Southeast 231 266 6,300 -667 Descending Aus ATC (RADAR)
Tue 04:07:01 AM -27.4260 152.7728 123° Southeast 228 262 6,000 -686 Descending Aus ATC (RADAR)
Tue 04:08:16 AM -27.4643 152.8401 123° Southeast 183 211 5,100 -771 Descending Aus ATC (RADAR)
Tue 04:08:50 AM -27.4796 152.8666 123° Southeast 168 193 4,600 -865 Descending Aus ATC (RADAR)
Tue 04:10:00 AM -27.5091 152.9246 120° Southeast 181 208 3,600 -727 Descending Aus ATC (RADAR)
Tue 04:11:35 AM -27.5577 152.9979 127° Southeast 176 203 2,600 -455 Descending Aus ATC (RADAR)
Tue 04:12:25 AM -27.5400 153.0341 61° Northeast 155 178 2,500 -86 Descending Aus ATC (RADAR)
Tue 04:12:45 AM -27.5307 153.0461 49° Northeast 152 175 2,500 -300 Level Aus ATC (RADAR)
Tue 04:13:25 AM -27.5061 153.0586 24° Northeast 147 169 2,200 -660 Descending Aus ATC (RADAR)
Tue 04:14:25 AM -27.4707 153.0795 28° Northeast 140 161 1,400 -695 Descending Aus ATC (RADAR)
Tue 04:15:00 AM -27.4559 153.0882 28° Northeast 106 122 1,100 -471 Descending Aus ATC (RADAR)
Tue 04:16:45 AM -27.4154 153.1110 27° Northeast 92 106 300 -457 Descending Aus ATC (RADAR)

Login

Don't have an account? Register now (free) for customized features, flight alerts, and more!